sensor_id;sensor_type;location;lat;lon;timestamp;pressure;altitude;pressure_sealevel;temperature;humidity
12775;BME280;6451;42.630;23.382;2023-02-01T00:00:57;94480.59;;;1.58;100.00
12775;BME280;6451;42.630;23.382;2023-02-01T00:03:24;94484.19;;;1.49;100.00
12775;BME280;6451;42.630;23.382;2023-02-01T00:05:55;94468.50;;;1.42;100.00
12775;BME280;6451;42.630;23.382;2023-02-01T00:08:23;94455.75;;;1.34;100.00
12775;BME280;6451;42.630;23.382;2023-02-01T00:10:59;94478.22;;;1.33;100.00
12775;BME280;6451;42.630;23.382;2023-02-01T00:13:29;94466.56;;;1.48;100.00
12775;BME280;6451;42.630;23.382;2023-02-01T00:16:02;94470.41;;;1.60;100.00
12775;BME280;6451;42.630;23.382;2023-02-01T00:18:29;94456.97;;;1.23;100.00
12775;BME280;6451;42.630;23.382;2023-02-01T00:20:56;94452.00;;;1.35;100.00
12775;BME280;6451;42.630;23.382;2023-02-01T00:23:23;94478.56;;;1.50;100.00
12775;BME280;6451;42.630;23.382;2023-02-01T00:25:50;94458.94;;;1.36;100.00
12775;BME280;6451;42.630;23.382;2023-02-01T00:28:19;94463.81;;;1.29;100.00
12775;BME280;6451;42.630;23.382;2023-02-01T00:30:45;94460.31;;;1.33;100.00
12775;BME280;6451;42.630;23.382;2023-02-01T00:33:12;94455.25;;;1.32;100.00
12775;BME280;6451;42.630;23.382;2023-02-01T00:35:39;94470.38;;;1.42;100.00
12775;BME280;6451;42.630;23.382;2023-02-01T00:38:06;94454.22;;;1.28;100.00
12775;BME280;6451;42.630;23.382;2023-02-01T00:40:33;94463.56;;;1.30;100.00
12775;BME280;6451;42.630;23.382;2023-02-01T00:43:00;94451.84;;;1.26;100.00
12775;BME280;6451;42.630;23.382;2023-02-01T00:45:28;94451.38;;;1.43;100.00
12775;BME280;6451;42.630;23.382;2023-02-01T00:47:55;94414.81;;;1.15;100.00
12775;BME280;6451;42.630;23.382;2023-02-01T00:50:22;94433.41;;;1.25;100.00
12775;BME280;6451;42.630;23.382;2023-02-01T00:52:48;94458.88;;;1.17;100.00
12775;BME280;6451;42.630;23.382;2023-02-01T00:55:16;94446.03;;;1.19;100.00
12775;BME280;6451;42.630;23.382;2023-02-01T00:57:43;94447.00;;;1.04;100.00
12775;BME280;6451;42.630;23.382;2023-02-01T01:00:11;94453.13;;;1.05;100.00
12775;BME280;6451;42.630;23.382;2023-02-01T01:02:39;94436.88;;;1.01;100.00
12775;BME280;6451;42.630;23.382;2023-02-01T01:05:07;94435.34;;;0.95;100.00
12775;BME280;6451;42.630;23.382;2023-02-01T01:07:34;94429.25;;;0.90;100.00
12775;BME280;6451;42.630;23.382;2023-02-01T01:10:01;94450.16;;;1.06;100.00
12775;BME280;6451;42.630;23.382;2023-02-01T01:12:28;94444.31;;;1.04;100.00
12775;BME280;6451;42.630;23.382;2023-02-01T01:14:55;94406.06;;;0.85;100.00
12775;BME280;6451;42.630;23.382;2023-02-01T01:17:22;94415.44;;;1.06;100.00
12775;BME280;6451;42.630;23.382;2023-02-01T01:19:50;94426.41;;;1.05;100.00
12775;BME280;6451;42.630;23.382;2023-02-01T01:22:17;94443.16;;;1.16;100.00
12775;BME280;6451;42.630;23.382;2023-02-01T01:24:45;94439.69;;;1.15;100.00
12775;BME280;6451;42.630;23.382;2023-02-01T01:27:12;94435.06;;;1.21;100.00
12775;BME280;6451;42.630;23.382;2023-02-01T01:29:39;94435.78;;;1.26;100.00
12775;BME280;6451;42.630;23.382;2023-02-01T01:32:06;94435.97;;;1.35;100.00
12775;BME280;6451;42.630;23.382;2023-02-01T01:34:33;94429.06;;;1.29;100.00
12775;BME280;6451;42.630;23.382;2023-02-01T01:37:01;94444.78;;;1.35;100.00
12775;BME280;6451;42.630;23.382;2023-02-01T01:39:29;94420.22;;;1.09;100.00
12775;BME280;6451;42.630;23.382;2023-02-01T01:41:56;94411.63;;;1.13;100.00
12775;BME280;6451;42.630;23.382;2023-02-01T01:44:57;94451.16;;;1.16;100.00
12775;BME280;6451;42.630;23.382;2023-02-01T01:47:25;94446.06;;;1.14;100.00
12775;BME280;6451;42.630;23.382;2023-02-01T01:49:53;94440.19;;;1.17;100.00
12775;BME280;6451;42.630;23.382;2023-02-01T01:52:22;94450.75;;;1.27;100.00
12775;BME280;6451;42.630;23.382;2023-02-01T01:54:51;94450.63;;;1.14;100.00
12775;BME280;6451;42.630;23.382;2023-02-01T01:57:24;94428.63;;;0.98;100.00
12775;BME280;6451;42.630;23.382;2023-02-01T02:00:00;94465.56;;;1.15;100.00
12775;BME280;6451;42.630;23.382;2023-02-01T02:02:29;94452.06;;;1.06;100.00
12775;BME280;6451;42.630;23.382;2023-02-01T02:04:56;94413.38;;;0.74;100.00
12775;BME280;6451;42.630;23.382;2023-02-01T02:07:27;94422.13;;;0.80;100.00
12775;BME280;6451;42.630;23.382;2023-02-01T02:09:55;94445.22;;;0.95;100.00
12775;BME280;6451;42.630;23.382;2023-02-01T02:12:22;94428.09;;;0.72;100.00
12775;BME280;6451;42.630;23.382;2023-02-01T02:14:49;94444.63;;;0.74;100.00
12775;BME280;6451;42.630;23.382;2023-02-01T02:17:29;94439.88;;;0.71;100.00
12775;BME280;6451;42.630;23.382;2023-02-01T02:20:30;94383.44;;;0.24;100.00
12775;BME280;6451;42.630;23.382;2023-02-01T02:23:23;94432.72;;;0.61;100.00
12775;BME280;6451;42.630;23.382;2023-02-01T02:26:12;94415.72;;;0.52;100.00
12775;BME280;6451;42.630;23.382;2023-02-01T02:32:10;94408.38;;;0.39;100.00
12775;BME280;6451;42.630;23.382;2023-02-01T02:34:47;94405.56;;;0.25;100.00
12775;BME280;6451;42.630;23.382;2023-02-01T02:37:22;94419.56;;;0.41;100.00
12775;BME280;6451;42.630;23.382;2023-02-01T02:39:58;94431.34;;;0.40;100.00
12775;BME280;6451;42.630;23.382;2023-02-01T02:42:32;94431.34;;;0.40;100.00
12775;BME280;6451;42.630;23.382;2023-02-01T02:45:26;94435.00;;;0.44;100.00
12775;BME280;6451;42.630;23.382;2023-02-01T02:48:17;94438.44;;;0.49;100.00
12775;BME280;6451;42.630;23.382;2023-02-01T02:50:51;94434.88;;;0.59;100.00
12775;BME280;6451;42.630;23.382;2023-02-01T02:56:43;94419.34;;;0.66;100.00
12775;BME280;6451;42.630;23.382;2023-02-01T02:59:28;94402.69;;;0.45;100.00
12775;BME280;6451;42.630;23.382;2023-02-01T03:02:16;94405.34;;;0.50;100.00
12775;BME280;6451;42.630;23.382;2023-02-01T03:05:01;94425.00;;;0.60;100.00
12775;BME280;6451;42.630;23.382;2023-02-01T03:07:57;94428.09;;;0.72;100.00
12775;BME280;6451;42.630;23.382;2023-02-01T03:10:35;94330.94;;;0.15;100.00
12775;BME280;6451;42.630;23.382;2023-02-01T03:13:10;94433.28;;;0.87;100.00
12775;BME280;6451;42.630;23.382;2023-02-01T03:15:39;94430.47;;;0.73;100.00
12775;BME280;6451;42.630;23.382;2023-02-01T03:18:13;94459.09;;;0.97;100.00
12775;BME280;6451;42.630;23.382;2023-02-01T03:20:44;94437.38;;;0.79;100.00
12775;BME280;6451;42.630;23.382;2023-02-01T03:23:16;94463.44;;;0.93;100.00
12775;BME280;6451;42.630;23.382;2023-02-01T03:25:47;94468.41;;;0.99;100.00
12775;BME280;6451;42.630;23.382;2023-02-01T03:28:17;94460.78;;;0.88;100.00
12775;BME280;6451;42.630;23.382;2023-02-01T03:30:48;94464.22;;;0.93;100.00
12775;BME280;6451;42.630;23.382;2023-02-01T03:33:17;94467.41;;;0.95;100.00
12775;BME280;6451;42.630;23.382;2023-02-01T03:35:56;94462.09;;;0.90;100.00
12775;BME280;6451;42.630;23.382;2023-02-01T03:38:30;94452.91;;;1.01;100.00
12775;BME280;6451;42.630;23.382;2023-02-01T03:41:02;94465.19;;;1.02;100.00
12775;BME280;6451;42.630;23.382;2023-02-01T03:43:33;94454.94;;;0.86;100.00
12775;BME280;6451;42.630;23.382;2023-02-01T03:46:07;94465.75;;;0.99;100.00
12775;BME280;6451;42.630;23.382;2023-02-01T03:48:36;94446.59;;;0.92;100.00
12775;BME280;6451;42.630;23.382;2023-02-01T03:51:07;94463.53;;;1.06;100.00
12775;BME280;6451;42.630;23.382;2023-02-01T03:53:36;94457.19;;;1.02;100.00
12775;BME280;6451;42.630;23.382;2023-02-01T03:56:06;94451.84;;;1.02;100.00
12775;BME280;6451;42.630;23.382;2023-02-01T03:58:33;94466.78;;;1.03;100.00
12775;BME280;6451;42.630;23.382;2023-02-01T04:01:00;94469.44;;;1.03;100.00
12775;BME280;6451;42.630;23.382;2023-02-01T04:03:28;94457.63;;;1.09;100.00
12775;BME280;6451;42.630;23.382;2023-02-01T04:05:55;94460.34;;;1.04;100.00
12775;BME280;6451;42.630;23.382;2023-02-01T04:08:23;94461.41;;;1.08;100.00
12775;BME280;6451;42.630;23.382;2023-02-01T04:10:51;94455.47;;;1.11;100.00
12775;BME280;6451;42.630;23.382;2023-02-01T04:13:18;94457.31;;;1.16;100.00
12775;BME280;6451;42.630;23.382;2023-02-01T04:15:46;94458.94;;;1.12;100.00
12775;BME280;6451;42.630;23.382;2023-02-01T04:18:15;94457.81;;;1.18;100.00
12775;BME280;6451;42.630;23.382;2023-02-01T04:20:42;94470.34;;;1.23;100.00
12775;BME280;6451;42.630;23.382;2023-02-01T04:23:09;94457.22;;;1.21;100.00
12775;BME280;6451;42.630;23.382;2023-02-01T04:25:36;94460.19;;;1.20;100.00
12775;BME280;6451;42.630;23.382;2023-02-01T04:28:04;94461.22;;;1.24;100.00
12775;BME280;6451;42.630;23.382;2023-02-01T04:30:33;94457.00;;;1.18;100.00
12775;BME280;6451;42.630;23.382;2023-02-01T04:33:00;94464.13;;;1.27;100.00
12775;BME280;6451;42.630;23.382;2023-02-01T04:35:29;94435.97;;;1.11;100.00
12775;BME280;6451;42.630;23.382;2023-02-01T04:37:55;94461.78;;;1.21;100.00
12775;BME280;6451;42.630;23.382;2023-02-01T04:40:22;94459.81;;;1.31;100.00
12775;BME280;6451;42.630;23.382;2023-02-01T04:42:49;94471.13;;;1.23;100.00
12775;BME280;6451;42.630;23.382;2023-02-01T04:45:17;94465.19;;;1.26;100.00
12775;BME280;6451;42.630;23.382;2023-02-01T04:47:44;94429.84;;;1.10;100.00
12775;BME280;6451;42.630;23.382;2023-02-01T04:50:11;94463.38;;;1.22;100.00
12775;BME280;6451;42.630;23.382;2023-02-01T04:52:38;94469.50;;;1.22;100.00
12775;BME280;6451;42.630;23.382;2023-02-01T04:55:06;94476.34;;;1.33;100.00
12775;BME280;6451;42.630;23.382;2023-02-01T04:57:33;94461.22;;;1.24;100.00
12775;BME280;6451;42.630;23.382;2023-02-01T05:00:00;94471.75;;;1.39;100.00
12775;BME280;6451;42.630;23.382;2023-02-01T05:02:28;94470.75;;;1.30;100.00
12775;BME280;6451;42.630;23.382;2023-02-01T05:04:55;94466.78;;;1.27;100.00
12775;BME280;6451;42.630;23.382;2023-02-01T05:07:22;94477.94;;;1.34;100.00
12775;BME280;6451;42.630;23.382;2023-02-01T05:09:49;94488.84;;;1.38;100.00
12775;BME280;6451;42.630;23.382;2023-02-01T05:12:16;94499.16;;;1.26;100.00
12775;BME280;6451;42.630;23.382;2023-02-01T05:15:00;94487.25;;;1.37;100.00
12775;BME280;6451;42.630;23.382;2023-02-01T05:17:29;94494.78;;;1.35;100.00
12775;BME280;6451;42.630;23.382;2023-02-01T05:19:56;94488.13;;;1.32;100.00
12775;BME280;6451;42.630;23.382;2023-02-01T05:22:23;94491.81;;;1.36;100.00
12775;BME280;6451;42.630;23.382;2023-02-01T05:24:49;94493.06;;;1.44;100.00
12775;BME280;6451;42.630;23.382;2023-02-01T05:27:16;94490.09;;;1.46;100.00
12775;BME280;6451;42.630;23.382;2023-02-01T05:29:43;94494.56;;;1.55;100.00
12775;BME280;6451;42.630;23.382;2023-02-01T05:32:11;94416.47;;;1.10;100.00
12775;BME280;6451;42.630;23.382;2023-02-01T05:34:40;94486.88;;;1.49;100.00
12775;BME280;6451;42.630;23.382;2023-02-01T05:37:06;94507.91;;;1.55;100.00
12775;BME280;6451;42.630;23.382;2023-02-01T05:39:34;94493.63;;;1.65;100.00
12775;BME280;6451;42.630;23.382;2023-02-01T05:42:00;94500.09;;;1.59;100.00
12775;BME280;6451;42.630;23.382;2023-02-01T05:44:27;94494.72;;;1.64;100.00
12775;BME280;6451;42.630;23.382;2023-02-01T05:46:54;94491.25;;;1.63;100.00
12775;BME280;6451;42.630;23.382;2023-02-01T05:49:21;94497.59;;;1.67;100.00
12775;BME280;6451;42.630;23.382;2023-02-01T05:51:49;94500.50;;;1.71;100.00
12775;BME280;6451;42.630;23.382;2023-02-01T05:54:17;94493.28;;;1.72;100.00
12775;BME280;6451;42.630;23.382;2023-02-01T05:56:50;94496.41;;;1.79;100.00
12775;BME280;6451;42.630;23.382;2023-02-01T05:59:18;94477.97;;;1.77;100.00
12775;BME280;6451;42.630;23.382;2023-02-01T06:01:45;94491.78;;;1.84;100.00
12775;BME280;6451;42.630;23.382;2023-02-01T06:04:11;94479.13;;;1.90;100.00
12775;BME280;6451;42.630;23.382;2023-02-01T06:06:38;94503.34;;;1.99;100.00
12775;BME280;6451;42.630;23.382;2023-02-01T06:09:07;94476.44;;;1.90;100.00
12775;BME280;6451;42.630;23.382;2023-02-01T06:11:34;94503.94;;;1.95;100.00
12775;BME280;6451;42.630;23.382;2023-02-01T06:14:01;94492.75;;;1.93;100.00
12775;BME280;6451;42.630;23.382;2023-02-01T06:16:27;94510.53;;;2.03;100.00
12775;BME280;6451;42.630;23.382;2023-02-01T06:18:54;94492.94;;;1.97;100.00
12775;BME280;6451;42.630;23.382;2023-02-01T06:21:21;94509.09;;;2.11;100.00
12775;BME280;6451;42.630;23.382;2023-02-01T06:23:50;94498.69;;;2.09;100.00
12775;BME280;6451;42.630;23.382;2023-02-01T06:26:18;94515.19;;;2.16;100.00
12775;BME280;6451;42.630;23.382;2023-02-01T06:28:46;94492.28;;;2.05;100.00
12775;BME280;6451;42.630;23.382;2023-02-01T06:31:13;94517.69;;;2.27;100.00
12775;BME280;6451;42.630;23.382;2023-02-01T06:33:40;94511.34;;;2.22;100.00
12775;BME280;6451;42.630;23.382;2023-02-01T06:36:09;94502.44;;;2.27;100.00
12775;BME280;6451;42.630;23.382;2023-02-01T06:38:37;94502.28;;;2.37;100.00
12775;BME280;6451;42.630;23.382;2023-02-01T06:41:04;94452.38;;;2.09;100.00
12775;BME280;6451;42.630;23.382;2023-02-01T06:43:33;94513.00;;;2.56;100.00
12775;BME280;6451;42.630;23.382;2023-02-01T06:46:02;94496.56;;;2.44;100.00
12775;BME280;6451;42.630;23.382;2023-02-01T06:48:30;94502.63;;;2.49;100.00
12775;BME280;6451;42.630;23.382;2023-02-01T06:50:57;94505.44;;;2.58;100.00
12775;BME280;6451;42.630;23.382;2023-02-01T06:53:24;94515.66;;;2.56;100.00
12775;BME280;6451;42.630;23.382;2023-02-01T06:55:52;94525.66;;;2.69;100.00
12775;BME280;6451;42.630;23.382;2023-02-01T06:58:20;94515.53;;;2.47;100.00
12775;BME280;6451;42.630;23.382;2023-02-01T07:00:48;94523.72;;;2.56;100.00
12775;BME280;6451;42.630;23.382;2023-02-01T07:03:16;94523.56;;;2.47;100.00
12775;BME280;6451;42.630;23.382;2023-02-01T07:05:43;94511.13;;;2.38;100.00
12775;BME280;6451;42.630;23.382;2023-02-01T07:08:10;94528.28;;;2.56;100.00
12775;BME280;6451;42.630;23.382;2023-02-01T07:10:37;94515.66;;;2.37;100.00
12775;BME280;6451;42.630;23.382;2023-02-01T07:13:04;94549.41;;;2.57;100.00
12775;BME280;6451;42.630;23.382;2023-02-01T07:15:31;94553.53;;;2.49;100.00
12775;BME280;6451;42.630;23.382;2023-02-01T07:17:59;94547.22;;;2.59;100.00
12775;BME280;6451;42.630;23.382;2023-02-01T07:20:26;94543.53;;;2.55;100.00
12775;BME280;6451;42.630;23.382;2023-02-01T07:22:56;94550.91;;;2.63;100.00
12775;BME280;6451;42.630;23.382;2023-02-01T07:25:24;94501.16;;;2.25;100.00
12775;BME280;6451;42.630;23.382;2023-02-01T07:27:51;94574.16;;;2.68;100.00
12775;BME280;6451;42.630;23.382;2023-02-01T07:30:18;94567.50;;;2.65;100.00
12775;BME280;6451;42.630;23.382;2023-02-01T07:32:45;94563.66;;;2.71;100.00
12775;BME280;6451;42.630;23.382;2023-02-01T07:35:13;94565.38;;;2.81;100.00
12775;BME280;6451;42.630;23.382;2023-02-01T07:37:41;94560.09;;;2.76;100.00
12775;BME280;6451;42.630;23.382;2023-02-01T07:40:09;94551.25;;;2.75;100.00
12775;BME280;6451;42.630;23.382;2023-02-01T07:42:36;94522.31;;;2.59;100.00
12775;BME280;6451;42.630;23.382;2023-02-01T07:45:04;94570.44;;;2.83;100.00
12775;BME280;6451;42.630;23.382;2023-02-01T07:47:31;94557.34;;;2.81;100.00
12775;BME280;6451;42.630;23.382;2023-02-01T07:49:58;94583.47;;;2.89;100.00
12775;BME280;6451;42.630;23.382;2023-02-01T07:52:28;94573.66;;;2.85;100.00
12775;BME280;6451;42.630;23.382;2023-02-01T07:54:55;94581.69;;;2.85;100.00
12775;BME280;6451;42.630;23.382;2023-02-01T07:57:22;94583.19;;;2.91;100.00
12775;BME280;6451;42.630;23.382;2023-02-01T07:59:49;94572.88;;;2.98;100.00
12775;BME280;6451;42.630;23.382;2023-02-01T08:02:33;94589.69;;;3.03;100.00
12775;BME280;6451;42.630;23.382;2023-02-01T08:05:00;94596.63;;;3.04;100.00
12775;BME280;6451;42.630;23.382;2023-02-01T08:07:28;94603.97;;;2.99;100.00
12775;BME280;6451;42.630;23.382;2023-02-01T08:09:56;94607.38;;;3.04;100.00
12775;BME280;6451;42.630;23.382;2023-02-01T08:12:24;94586.84;;;3.14;100.00
12775;BME280;6451;42.630;23.382;2023-02-01T08:14:53;94584.03;;;3.05;100.00
12775;BME280;6451;42.630;23.382;2023-02-01T08:17:22;94600.97;;;3.19;100.00
12775;BME280;6451;42.630;23.382;2023-02-01T08:19:53;94593.00;;;3.14;100.00
12775;BME280;6451;42.630;23.382;2023-02-01T08:22:20;94553.69;;;3.10;100.00
12775;BME280;6451;42.630;23.382;2023-02-01T08:24:49;94567.81;;;3.29;100.00
12775;BME280;6451;42.630;23.382;2023-02-01T08:27:17;94581.38;;;3.38;100.00
12775;BME280;6451;42.630;23.382;2023-02-01T08:29:44;94585.84;;;3.42;100.00
12775;BME280;6451;42.630;23.382;2023-02-01T08:32:11;94590.88;;;3.30;100.00
12775;BME280;6451;42.630;23.382;2023-02-01T08:34:37;94590.72;;;3.40;100.00
12775;BME280;6451;42.630;23.382;2023-02-01T08:37:04;94589.84;;;3.58;100.00
12775;BME280;6451;42.630;23.382;2023-02-01T08:39:32;94585.75;;;3.47;100.00
12775;BME280;6451;42.630;23.382;2023-02-01T08:42:01;94593.13;;;3.55;100.00
12775;BME280;6451;42.630;23.382;2023-02-01T08:44:45;94585.59;;;3.71;100.00
12775;BME280;6451;42.630;23.382;2023-02-01T08:47:12;94574.84;;;3.57;100.00
12775;BME280;6451;42.630;23.382;2023-02-01T08:49:39;94564.91;;;3.58;100.00
12775;BME280;6451;42.630;23.382;2023-02-01T08:52:06;94582.03;;;3.76;100.00
12775;BME280;6451;42.630;23.382;2023-02-01T08:54:33;94579.44;;;3.84;100.00
12775;BME280;6451;42.630;23.382;2023-02-01T08:57:02;94573.06;;;3.94;100.00
12775;BME280;6451;42.630;23.382;2023-02-01T08:59:29;94572.69;;;3.87;100.00
12775;BME280;6451;42.630;23.382;2023-02-01T09:01:56;94580.63;;;4.06;100.00
12775;BME280;6451;42.630;23.382;2023-02-01T09:04:23;94577.59;;;4.49;100.00
12775;BME280;6451;42.630;23.382;2023-02-01T09:06:50;94572.50;;;4.61;98.72
12775;BME280;6451;42.630;23.382;2023-02-01T09:09:18;94599.78;;;4.54;97.80
12775;BME280;6451;42.630;23.382;2023-02-01T09:11:45;94575.16;;;4.38;97.56
12775;BME280;6451;42.630;23.382;2023-02-01T09:14:15;94588.44;;;4.43;98.66
12775;BME280;6451;42.630;23.382;2023-02-01T09:16:42;94579.50;;;4.34;99.16
12775;BME280;6451;42.630;23.382;2023-02-01T09:19:09;94610.56;;;4.27;99.45
12775;BME280;6451;42.630;23.382;2023-02-01T09:21:36;94597.25;;;4.08;100.00
12775;BME280;6451;42.630;23.382;2023-02-01T09:24:03;94594.66;;;4.03;100.00
12775;BME280;6451;42.630;23.382;2023-02-01T09:26:30;94605.56;;;4.06;100.00
12775;BME280;6451;42.630;23.382;2023-02-01T09:28:57;94563.53;;;4.02;100.00
12775;BME280;6451;42.630;23.382;2023-02-01T09:31:25;94596.16;;;4.23;100.00
12775;BME280;6451;42.630;23.382;2023-02-01T09:33:54;94587.00;;;4.10;100.00
12775;BME280;6451;42.630;23.382;2023-02-01T09:36:21;94607.28;;;4.30;100.00
12775;BME280;6451;42.630;23.382;2023-02-01T09:38:48;94598.94;;;4.31;100.00
12775;BME280;6451;42.630;23.382;2023-02-01T09:41:26;94508.44;;;4.04;99.98
12775;BME280;6451;42.630;23.382;2023-02-01T09:44:08;94576.38;;;4.68;98.52
12775;BME280;6451;42.630;23.382;2023-02-01T09:46:38;94570.25;;;4.40;98.54
12775;BME280;6451;42.630;23.382;2023-02-01T09:49:10;94564.19;;;4.35;97.66
12775;BME280;6451;42.630;23.382;2023-02-01T09:51:44;94577.81;;;4.38;98.24
12775;BME280;6451;42.630;23.382;2023-02-01T09:54:15;94551.56;;;4.22;98.09
12775;BME280;6451;42.630;23.382;2023-02-01T09:56:46;94572.00;;;4.59;97.33
12775;BME280;6451;42.630;23.382;2023-02-01T09:59:23;94549.28;;;4.65;95.70
12775;BME280;6451;42.630;23.382;2023-02-01T10:01:53;94545.06;;;4.50;94.47
12775;BME280;6451;42.630;23.382;2023-02-01T10:04:20;94538.00;;;4.54;94.27
12775;BME280;6451;42.630;23.382;2023-02-01T10:07:01;94547.16;;;4.53;93.97
12775;BME280;6451;42.630;23.382;2023-02-01T10:09:44;94546.66;;;4.73;93.55
12775;BME280;6451;42.630;23.382;2023-02-01T10:12:42;94560.34;;;4.63;92.86
12775;BME280;6451;42.630;23.382;2023-02-01T10:15:21;94559.16;;;4.69;92.99
12775;BME280;6451;42.630;23.382;2023-02-01T10:18:11;94474.06;;;4.29;92.17
12775;BME280;6451;42.630;23.382;2023-02-01T10:20:55;94537.50;;;4.74;91.77
12775;BME280;6451;42.630;23.382;2023-02-01T10:23:38;94540.41;;;5.00;92.28
12775;BME280;6451;42.630;23.382;2023-02-01T10:26:17;94540.25;;;5.06;91.28
12775;BME280;6451;42.630;23.382;2023-02-01T10:28:48;94527.19;;;5.13;90.55
12775;BME280;6451;42.630;23.382;2023-02-01T10:31:15;94514.69;;;5.08;90.52
12775;BME280;6451;42.630;23.382;2023-02-01T10:33:46;94513.63;;;5.18;89.80
12775;BME280;6451;42.630;23.382;2023-02-01T10:36:16;94495.69;;;5.13;89.30
12775;BME280;6451;42.630;23.382;2023-02-01T10:38:46;94486.53;;;4.83;89.22
12775;BME280;6451;42.630;23.382;2023-02-01T10:41:15;94510.03;;;5.00;89.20
12775;BME280;6451;42.630;23.382;2023-02-01T10:43:44;94506.56;;;4.99;89.36
12775;BME280;6451;42.630;23.382;2023-02-01T10:46:14;94495.06;;;5.08;87.80
12775;BME280;6451;42.630;23.382;2023-02-01T10:48:41;94498.28;;;5.18;87.58
12775;BME280;6451;42.630;23.382;2023-02-01T10:51:14;94502.69;;;5.45;86.17
12775;BME280;6451;42.630;23.382;2023-02-01T10:53:48;94494.09;;;5.35;85.46
12775;BME280;6451;42.630;23.382;2023-02-01T10:56:22;94491.41;;;5.35;86.23
12775;BME280;6451;42.630;23.382;2023-02-01T10:58:50;94505.94;;;5.02;85.86
12775;BME280;6451;42.630;23.382;2023-02-01T11:01:20;94491.66;;;4.93;86.65
12775;BME280;6451;42.630;23.382;2023-02-01T11:03:53;94473.09;;;4.83;87.29
12775;BME280;6451;42.630;23.382;2023-02-01T11:06:29;94489.00;;;5.02;86.81
12775;BME280;6451;42.630;23.382;2023-02-01T11:08:58;94507.03;;;5.01;87.27
12775;BME280;6451;42.630;23.382;2023-02-01T11:11:27;94497.69;;;4.77;86.86
12775;BME280;6451;42.630;23.382;2023-02-01T11:13:56;94496.28;;;4.79;86.52
12775;BME280;6451;42.630;23.382;2023-02-01T11:16:30;94417.91;;;4.63;85.68
12775;BME280;6451;42.630;23.382;2023-02-01T11:18:59;94457.59;;;5.20;84.41
12775;BME280;6451;42.630;23.382;2023-02-01T11:21:27;94507.97;;;5.59;83.86
12775;BME280;6451;42.630;23.382;2023-02-01T11:23:55;94502.50;;;5.42;83.86
12775;BME280;6451;42.630;23.382;2023-02-01T11:26:27;94478.00;;;5.52;83.92
12775;BME280;6451;42.630;23.382;2023-02-01T11:28:58;94493.84;;;5.45;83.79
12775;BME280;6451;42.630;23.382;2023-02-01T11:31:27;94460.19;;;5.25;84.48
12775;BME280;6451;42.630;23.382;2023-02-01T11:33:58;94411.94;;;4.97;83.41
12775;BME280;6451;42.630;23.382;2023-02-01T11:36:30;94473.56;;;5.47;83.38
12775;BME280;6451;42.630;23.382;2023-02-01T11:39:10;94443.59;;;5.32;82.19
12775;BME280;6451;42.630;23.382;2023-02-01T11:41:57;94468.06;;;5.52;82.16
12775;BME280;6451;42.630;23.382;2023-02-01T11:44:34;94461.56;;;5.53;82.24
12775;BME280;6451;42.630;23.382;2023-02-01T11:47:23;94465.69;;;5.59;81.49
12775;BME280;6451;42.630;23.382;2023-02-01T11:49:52;94476.81;;;5.67;80.65
12775;BME280;6451;42.630;23.382;2023-02-01T11:58:11;94443.81;;;5.92;81.20
12775;BME280;6451;42.630;23.382;2023-02-01T12:00:59;94437.69;;;5.61;81.99
12775;BME280;6451;42.630;23.382;2023-02-01T12:06:42;94431.53;;;5.60;81.51
12775;BME280;6451;42.630;23.382;2023-02-01T12:09:21;94434.38;;;5.72;81.76
12775;BME280;6451;42.630;23.382;2023-02-01T12:11:59;94434.94;;;5.92;81.64
12775;BME280;6451;42.630;23.382;2023-02-01T12:14:45;94460.78;;;5.53;81.69
12775;BME280;6451;42.630;23.382;2023-02-01T12:17:33;94433.72;;;5.67;82.59
12775;BME280;6451;42.630;23.382;2023-02-01T12:20:15;94424.72;;;5.63;82.20
12775;BME280;6451;42.630;23.382;2023-02-01T12:22:55;94434.69;;;5.71;82.32
12775;BME280;6451;42.630;23.382;2023-02-01T12:25:37;94428.69;;;5.74;82.56
12775;BME280;6451;42.630;23.382;2023-02-01T12:28:20;94456.38;;;5.66;82.34
12775;BME280;6451;42.630;23.382;2023-02-01T12:31:10;94435.59;;;5.57;81.20
12775;BME280;6451;42.630;23.382;2023-02-01T12:33:52;94444.50;;;5.67;82.73
12775;BME280;6451;42.630;23.382;2023-02-01T12:36:29;94440.72;;;5.68;82.44
12775;BME280;6451;42.630;23.382;2023-02-01T12:39:07;94414.38;;;5.47;82.76
12775;BME280;6451;42.630;23.382;2023-02-01T12:41:56;94449.09;;;5.66;82.89
12775;BME280;6451;42.630;23.382;2023-02-01T12:44:31;94418.16;;;5.38;82.21
12775;BME280;6451;42.630;23.382;2023-02-01T12:47:03;94464.25;;;5.53;81.41
12775;BME280;6451;42.630;23.382;2023-02-01T12:49:41;94396.44;;;5.34;80.80
12775;BME280;6451;42.630;23.382;2023-02-01T12:52:13;94451.81;;;5.75;80.48
12775;BME280;6451;42.630;23.382;2023-02-01T12:54:46;94424.09;;;5.74;79.77
12775;BME280;6451;42.630;23.382;2023-02-01T12:57:21;94432.84;;;5.89;79.60
12775;BME280;6451;42.630;23.382;2023-02-01T12:59:54;94447.72;;;5.86;78.57
12775;BME280;6451;42.630;23.382;2023-02-01T13:02:30;94431.41;;;5.82;78.13
12775;BME280;6451;42.630;23.382;2023-02-01T13:05:05;94438.53;;;5.78;77.69
12775;BME280;6451;42.630;23.382;2023-02-01T13:07:44;94439.69;;;5.95;78.03
12775;BME280;6451;42.630;23.382;2023-02-01T13:10:15;94434.63;;;5.93;77.73
12775;BME280;6451;42.630;23.382;2023-02-01T13:12:51;94436.31;;;5.89;76.37
12775;BME280;6451;42.630;23.382;2023-02-01T13:15:25;94422.22;;;5.83;76.92
12775;BME280;6451;42.630;23.382;2023-02-01T13:18:03;94437.31;;;5.93;76.74
12775;BME280;6451;42.630;23.382;2023-02-01T13:20:37;94455.53;;;5.96;77.03
12775;BME280;6451;42.630;23.382;2023-02-01T13:23:09;94448.44;;;6.00;76.93
12775;BME280;6451;42.630;23.382;2023-02-01T13:25:45;94422.28;;;5.92;76.27
12775;BME280;6451;42.630;23.382;2023-02-01T13:28:24;94398.94;;;5.88;76.30
12775;BME280;6451;42.630;23.382;2023-02-01T13:34:09;94434.19;;;6.08;75.02
12775;BME280;6451;42.630;23.382;2023-02-01T13:37:05;94446.22;;;6.11;73.33
12775;BME280;6451;42.630;23.382;2023-02-01T13:39:47;94406.22;;;5.87;72.37
12775;BME280;6451;42.630;23.382;2023-02-01T13:42:18;94421.31;;;5.97;73.41